Time;durP1;ratioP1;P1;durP2;ratioP2;P2;SDS_P1;SDS_P2;PMS_P1;PMS_P2;Temp;Humidity;BMP_temperature;BMP_pressure;BME280_temperature;BME280_humidity;BME280_pressure;Samples;Min_cycle;Max_cycle;Signal;HPM_P1;HPM_P2
2023/07/11 00:01:59;;;;;;;9.33;7.83;;;22.60;79.50;;;;;;20899549;28;20299;-71
2023/07/11 00:12:01;;;;;;;10.83;7.73;;;22.40;80.30;;;;;;20914678;28;20240;-71
2023/07/11 00:22:03;;;;;;;11.47;8.17;;;22.10;82.00;;;;;;20915536;28;20718;-71
2023/07/11 00:32:06;;;;;;;11.43;8.20;;;22.10;82.80;;;;;;20915042;28;20231;-70
2023/07/11 00:42:09;;;;;;;12.03;7.83;;;22.10;82.90;;;;;;20913296;28;20210;-71
2023/07/11 00:52:14;;;;;;;9.63;7.60;;;22.00;83.60;;;;;;20913151;28;20282;-71
2023/07/11 01:02:20;;;;;;;12.57;8.03;;;21.90;83.80;;;;;;20912868;28;20200;-71
2023/07/11 01:12:22;;;;;;;9.43;7.63;;;21.60;84.00;;;;;;20912280;28;20250;-72
2023/07/11 01:22:26;;;;;;;10.57;7.80;;;21.60;84.40;;;;;;20912285;28;20270;-71
2023/07/11 01:32:28;;;;;;;11.87;7.60;;;21.60;85.30;;;;;;20911938;28;20242;-71
2023/07/11 01:42:29;;;;;;;12.13;8.03;;;21.30;85.80;;;;;;20911195;28;20240;-71
2023/07/11 01:52:31;;;;;;;9.93;7.77;;;21.20;86.30;;;;;;20911080;28;20714;-71
2023/07/11 02:02:33;;;;;;;11.43;8.03;;;21.20;87.50;;;;;;20911365;28;20687;-71
2023/07/11 02:12:35;;;;;;;12.93;8.20;;;21.10;87.70;;;;;;20915720;28;20286;-71
2023/07/11 02:22:37;;;;;;;9.33;7.83;;;21.00;88.20;;;;;;20927196;28;20218;-70
2023/07/11 02:32:39;;;;;;;8.83;7.87;;;20.80;88.70;;;;;;20925382;28;20315;-70
2023/07/11 02:42:41;;;;;;;10.03;8.13;;;20.80;89.50;;;;;;20923176;28;20214;-70
2023/07/11 02:52:43;;;;;;;8.63;7.73;;;20.60;89.50;;;;;;20922121;28;20710;-69
2023/07/11 03:02:44;;;;;;;8.73;7.43;;;20.50;90.10;;;;;;20921627;28;20294;-69
2023/07/11 03:12:46;;;;;;;9.17;7.70;;;20.50;90.50;;;;;;20920737;28;20317;-69
2023/07/11 03:22:48;;;;;;;9.93;8.10;;;20.40;90.70;;;;;;20918889;28;20210;-69
2023/07/11 03:32:50;;;;;;;10.13;8.33;;;20.40;91.00;;;;;;20919438;28;20267;-69
2023/07/11 03:42:52;;;;;;;9.73;8.00;;;20.30;90.90;;;;;;20918577;28;20724;-69
2023/07/11 03:52:54;;;;;;;9.47;7.83;;;20.20;91.10;;;;;;20917653;28;20628;-69
2023/07/11 04:02:55;;;;;;;10.07;8.33;;;20.20;91.40;;;;;;20916988;28;20729;-71
2023/07/11 04:12:57;;;;;;;11.20;8.23;;;20.20;91.40;;;;;;20916356;28;20246;-71
2023/07/11 04:22:59;;;;;;;9.40;7.87;;;20.20;91.70;;;;;;20915659;28;20290;-72
2023/07/11 04:33:01;;;;;;;12.37;8.90;;;20.30;91.70;;;;;;20914169;28;20239;-70
2023/07/11 04:43:03;;;;;;;18.97;9.00;;;20.50;91.90;;;;;;20914510;28;20207;-71
2023/07/11 04:53:04;;;;;;;11.47;8.70;;;20.50;92.10;;;;;;20913990;28;20243;-70
2023/07/11 05:03:06;;;;;;;19.30;8.67;;;20.80;92.00;;;;;;20916841;28;20315;-71
2023/07/11 05:13:09;;;;;;;21.67;9.03;;;21.00;91.90;;;;;;20915058;28;20292;-70
2023/07/11 05:23:12;;;;;;;15.70;9.63;;;21.00;92.20;;;;;;20911531;28;20210;-69
2023/07/11 05:33:15;;;;;;;16.03;9.67;;;21.30;91.70;;;;;;20910231;28;20326;-73
2023/07/11 05:43:17;;;;;;;22.83;10.43;;;21.50;91.70;;;;;;20907653;28;20208;-70
2023/07/11 05:53:19;;;;;;;14.00;9.47;;;21.80;91.50;;;;;;20923269;28;20322;-71
2023/07/11 06:03:23;;;;;;;19.83;9.07;;;22.00;91.20;;;;;;20925702;28;20312;-72
2023/07/11 06:13:27;;;;;;;16.97;9.60;;;22.10;90.70;;;;;;20925229;28;20279;-72
2023/07/11 06:23:29;;;;;;;53.33;29.63;;;22.50;90.30;;;;;;20906699;28;20208;-72
2023/07/11 06:33:31;;;;;;;16.80;12.03;;;22.80;89.70;;;;;;20923960;28;20322;-71
2023/07/11 06:43:33;;;;;;;22.03;11.33;;;23.00;88.60;;;;;;20923476;28;20212;-74
2023/07/11 06:53:35;;;;;;;25.60;16.17;;;23.30;87.50;;;;;;20922304;28;20243;-72
2023/07/11 07:03:37;;;;;;;15.03;9.23;;;23.60;86.60;;;;;;20920725;28;20297;-72
2023/07/11 07:13:39;;;;;;;13.93;8.30;;;23.90;85.50;;;;;;20921040;28;20293;-73
2023/07/11 07:23:56;;;;;;;20.20;13.83;;;24.20;84.40;;;;;;20920416;28;20742;-74
2023/07/11 07:33:58;;;;;;;15.13;7.80;;;24.50;83.20;;;;;;20921555;28;20263;-72
2023/07/11 07:44:00;;;;;;;12.03;7.57;;;24.70;81.90;;;;;;20926944;28;20207;-75
2023/07/11 07:54:02;;;;;;;16.43;11.00;;;25.00;79.60;;;;;;20919006;28;20245;-76
2023/07/11 08:04:04;;;;;;;11.87;7.50;;;25.20;78.30;;;;;;20916471;28;20741;-74
2023/07/11 08:14:06;;;;;;;10.57;7.53;;;25.50;77.70;;;;;;20912952;28;20335;-74
2023/07/11 08:24:08;;;;;;;12.00;7.70;;;25.80;76.70;;;;;;20912966;28;20282;-71
2023/07/11 08:34:10;;;;;;;11.20;6.67;;;26.00;75.50;;;;;;20912032;28;20242;-71
2023/07/11 08:44:36;;;;;;;49.23;33.70;;;26.30;74.20;;;;;;20909939;28;20548;-71
2023/07/11 08:55:16;;;;;;;9.67;6.50;;;26.60;72.80;;;;;;20909772;28;20232;-72
2023/07/11 09:05:35;;;;;;;6.20;5.30;;;26.90;69.90;;;;;;20893535;28;20227;-72
2023/07/11 09:15:51;;;;;;;7.73;5.27;;;27.20;66.70;;;;;;20912500;28;20244;-71
2023/07/11 09:26:00;;;;;;;8.98;4.50;;;27.50;63.60;;;;;;20933131;28;20270;-74
2023/07/11 09:36:11;;;;;;;12.55;4.70;;;27.70;60.90;;;;;;20938850;28;20263;-73
2023/07/11 09:46:21;;;;;;;7.55;4.40;;;28.00;58.80;;;;;;20938746;28;20217;-74
2023/07/11 09:56:25;;;;;;;7.18;4.93;;;28.20;57.60;;;;;;20937710;28;20241;-71
2023/07/11 10:06:31;;;;;;;7.10;4.10;;;28.50;56.60;;;;;;20919736;28;20255;-72
2023/07/11 10:16:35;;;;;;;11.95;7.88;;;28.60;56.00;;;;;;20939325;28;20246;-71
2023/07/11 10:26:38;;;;;;;7.80;4.80;;;28.90;55.60;;;;;;20939611;28;20243;-74
2023/07/11 10:36:46;;;;;;;10.85;4.80;;;29.20;54.80;;;;;;20925400;28;20358;-74
2023/07/11 10:46:51;;;;;;;5.32;4.28;;;29.30;54.00;;;;;;20921636;28;20580;-74
2023/07/11 10:57:04;;;;;;;9.05;4.53;;;29.50;53.70;;;;;;20920538;28;20232;-73
2023/07/11 11:07:13;;;;;;;7.40;4.70;;;29.70;53.10;;;;;;20900550;28;20232;-72
2023/07/11 11:17:20;;;;;;;6.97;5.05;;;29.80;52.40;;;;;;20919115;28;20235;-74
2023/07/11 11:27:32;;;;;;;6.50;4.70;;;30.00;51.40;;;;;;20918047;28;20291;-71
2023/07/11 11:37:54;;;;;;;6.25;4.70;;;30.20;50.30;;;;;;20916943;28;20237;-71
2023/07/11 11:48:00;;;;;;;7.20;4.38;;;30.40;50.00;;;;;;20917014;28;20208;-71
2023/07/11 11:58:13;;;;;;;7.72;5.60;;;30.60;49.30;;;;;;20917167;28;20282;-70
2023/07/11 12:08:26;;;;;;;5.18;4.35;;;30.90;48.80;;;;;;20915972;28;20323;-71
2023/07/11 12:18:41;;;;;;;7.28;4.60;;;31.30;47.50;;;;;;20900294;28;20307;-72
2023/07/11 12:28:46;;;;;;;7.95;6.07;;;31.60;46.50;;;;;;20915124;28;20298;-71
2023/07/11 12:38:59;;;;;;;8.95;4.85;;;31.90;45.80;;;;;;20913621;28;20265;-77
2023/07/11 12:49:16;;;;;;;6.32;4.82;;;32.00;45.60;;;;;;20911111;28;20200;-75
2023/07/11 12:59:23;;;;;;;6.85;5.15;;;32.10;45.10;;;;;;20913105;28;20276;-74
2023/07/11 13:09:26;;;;;;;7.35;5.20;;;32.10;44.00;;;;;;20911474;28;20719;-71
2023/07/11 13:19:28;;;;;;;9.23;5.82;;;32.20;43.90;;;;;;20911053;28;20270;-74
2023/07/11 13:29:37;;;;;;;9.07;6.90;;;32.30;43.40;;;;;;20911640;28;20287;-65
2023/07/11 13:39:46;;;;;;;5.60;4.80;;;32.50;42.30;;;;;;20910469;28;20729;-70
2023/07/11 13:50:17;;;;;;;8.70;5.20;;;32.50;42.10;;;;;;20891812;28;20238;-68
2023/07/11 14:00:20;;;;;;;10.40;5.20;;;32.80;41.30;;;;;;20906380;28;20223;-67
2023/07/11 14:10:24;;;;;;;7.43;5.35;;;33.00;41.30;;;;;;20915877;28;20244;-68
2023/07/11 14:20:27;;;;;;;9.82;5.10;;;33.10;41.30;;;;;;20922271;28;20243;-67
2023/07/11 14:30:30;;;;;;;11.38;4.68;;;33.20;41.30;;;;;;20923692;28;20610;-68
2023/07/11 14:40:32;;;;;;;8.98;4.88;;;34.30;40.30;;;;;;20923230;28;20231;-69
2023/07/11 14:50:33;;;;;;;7.85;4.78;;;34.50;40.30;;;;;;20922384;28;20214;-71
2023/07/11 15:00:35;;;;;;;7.53;5.03;;;34.20;40.80;;;;;;20921368;28;20315;-74
2023/07/11 15:10:37;;;;;;;8.68;4.93;;;35.70;39.60;;;;;;20920723;28;20240;-71
2023/07/11 15:20:40;;;;;;;9.15;5.10;;;35.50;39.30;;;;;;20900427;28;20240;-72
2023/07/11 15:30:43;;;;;;;9.95;5.00;;;35.40;39.60;;;;;;20918462;28;20313;-73
2023/07/11 15:40:45;;;;;;;8.75;4.90;;;36.10;39.00;;;;;;20918135;28;20370;-71
2023/07/11 15:50:51;;;;;;;7.88;5.05;;;34.90;39.80;;;;;;20918239;28;20645;-69
2023/07/11 16:00:53;;;;;;;5.28;4.78;;;34.50;40.00;;;;;;20916666;28;20319;-67
2023/07/11 16:11:00;;;;;;;9.63;5.53;;;34.40;39.60;;;;;;20910053;28;20297;-71
2023/07/11 16:21:02;;;;;;;9.05;5.38;;;36.50;38.00;;;;;;20913408;28;20230;-77
2023/07/11 16:31:05;;;;;;;6.65;5.20;;;36.70;37.80;;;;;;20913506;28;20294;-69
2023/07/11 16:41:07;;;;;;;10.82;5.70;;;35.90;38.90;;;;;;20913635;28;20236;-68
2023/07/11 16:51:20;;;;;;;7.65;5.82;;;36.00;39.20;;;;;;20913136;28;20257;-71
2023/07/11 17:01:22;;;;;;;7.90;5.57;;;35.50;39.50;;;;;;20912657;28;20667;-75
2023/07/11 17:11:24;;;;;;;6.47;5.20;;;35.00;40.00;;;;;;20911907;28;20282;-79
2023/07/11 17:21:26;;;;;;;8.73;5.10;;;35.00;39.50;;;;;;20911713;28;20215;-76
2023/07/11 17:31:28;;;;;;;6.25;5.20;;;34.00;40.60;;;;;;20911128;28;20204;-75
2023/07/11 17:41:29;;;;;;;12.60;5.57;;;33.40;41.60;;;;;;20914128;28;20207;-75
2023/07/11 17:51:33;;;;;;;6.80;5.50;;;32.80;42.50;;;;;;20925583;28;20203;-75
2023/07/11 18:01:35;;;;;;;8.88;5.50;;;32.30;43.30;;;;;;20926098;28;20898;-74
2023/07/11 18:11:37;;;;;;;10.52;5.60;;;31.90;44.30;;;;;;20925030;28;20670;-76
2023/07/11 18:21:39;;;;;;;23.02;5.53;;;31.60;45.20;;;;;;20924812;28;20204;-76
2023/07/11 18:31:40;;;;;;;6.95;5.32;;;31.50;45.70;;;;;;20923711;28;20208;-74
2023/07/11 18:41:42;;;;;;;7.38;5.70;;;31.30;46.20;;;;;;20923721;28;20211;-71
2023/07/11 18:51:44;;;;;;;7.38;5.57;;;31.00;46.70;;;;;;20879605;28;20704;-72
2023/07/11 19:01:46;;;;;;;13.32;5.03;;;30.70;47.20;;;;;;20839070;28;20292;-71
2023/07/11 19:11:47;;;;;;;9.82;7.57;;;30.50;48.00;;;;;;20839058;28;20245;-73
2023/07/11 19:21:49;;;;;;;11.63;9.77;;;30.20;48.80;;;;;;20904620;28;20214;-76
2023/07/11 19:31:52;;;;;;;14.23;6.13;;;30.10;49.20;;;;;;20918601;28;20587;-74
2023/07/11 19:41:55;;;;;;;16.77;6.43;;;29.90;49.60;;;;;;20917291;28;20556;-76
2023/07/11 19:51:57;;;;;;;6.95;6.05;;;29.90;50.10;;;;;;20916651;28;20315;-72
2023/07/11 20:01:59;;;;;;;7.97;6.40;;;29.80;50.60;;;;;;20915800;28;20262;-73
2023/07/11 20:12:00;;;;;;;8.23;6.32;;;29.70;50.90;;;;;;20915471;28;20584;-74
2023/07/11 20:22:02;;;;;;;9.07;5.28;;;29.70;51.50;;;;;;20914171;28;20258;-75
2023/07/11 20:32:11;;;;;;;6.60;5.30;;;29.50;51.40;;;;;;20913590;28;20315;-72
2023/07/11 20:42:13;;;;;;;9.13;5.50;;;29.50;51.50;;;;;;20913404;28;20207;-73
2023/07/11 20:52:14;;;;;;;8.48;5.32;;;29.40;51.80;;;;;;20912396;28;20270;-75
2023/07/11 21:02:16;;;;;;;9.15;5.70;;;29.30;52.40;;;;;;20894010;28;20220;-72
2023/07/11 21:12:19;;;;;;;8.68;5.43;;;29.20;53.00;;;;;;20893535;28;20245;-75
2023/07/11 21:22:21;;;;;;;7.10;5.40;;;29.00;53.30;;;;;;20910690;28;20211;-75
2023/07/11 21:32:22;;;;;;;6.40;4.75;;;29.00;53.30;;;;;;20909775;28;20311;-71
2023/07/11 21:42:24;;;;;;;5.32;4.28;;;28.90;52.90;;;;;;20910284;28;20207;-70
2023/07/11 21:52:26;;;;;;;6.13;3.63;;;28.90;53.00;;;;;;20911097;28;20270;-73
2023/07/11 22:02:28;;;;;;;9.73;3.33;;;28.50;54.90;;;;;;20910726;28;20212;-70
2023/07/11 22:12:31;;;;;;;6.23;3.33;;;27.80;58.10;;;;;;20910402;28;20287;-69
2023/07/11 22:22:33;;;;;;;4.30;3.27;;;27.20;61.10;;;;;;20908960;28;20250;-69
2023/07/11 22:32:35;;;;;;;5.07;3.40;;;26.40;65.20;;;;;;20919089;28;20250;-69
2023/07/11 22:42:36;;;;;;;6.57;4.00;;;25.90;68.90;;;;;;20924322;28;20584;-69
2023/07/11 22:52:38;;;;;;;4.67;3.60;;;25.40;73.60;;;;;;20923300;28;20319;-69
2023/07/11 23:02:40;;;;;;;6.30;4.07;;;24.70;81.70;;;;;;20922319;28;20579;-72
2023/07/11 23:12:41;;;;;;;7.90;3.83;;;24.20;89.80;;;;;;20923082;28;20228;-70
2023/07/11 23:22:45;;;;;;;7.03;4.00;;;23.80;92.60;;;;;;20921216;28;20573;-77
2023/07/11 23:32:48;;;;;;;4.87;3.40;;;23.60;94.30;;;;;;20919930;28;20278;-75
2023/07/11 23:42:50;;;;;;;6.00;2.93;;;23.40;96.10;;;;;;20919419;28;20303;-70
2023/07/11 23:52:51;;;;;;;3.37;2.50;;;23.40;96.80;;;;;;20900861;28;20236;-74
